Time;durP1;ratioP1;P1;durP2;ratioP2;P2;SDS_P1;SDS_P2;PMS_P1;PMS_P2;Temp;Humidity;BMP_temperature;BMP_pressure;BME280_temperature;BME280_humidity;BME280_pressure;Samples;Min_cycle;Max_cycle;Signal;HPM_P1;HPM_P2
2022/01/04 00:00:13;;;;;;;4.80;1.67;;;;;;;;;;5049985;28;20427;-72
2022/01/04 00:02:39;;;;;;;7.33;1.37;;;;;;;;;;5047492;28;20120;-73
2022/01/04 00:05:05;;;;;;;8.90;2.60;;;;;;;;;;5049267;28;20091;-74
2022/01/04 00:07:32;;;;;;;10.17;2.10;;;;;;;;;;5082983;28;20064;-72
2022/01/04 00:09:58;;;;;;;3.83;1.53;;;;;;;;;;5048941;28;20107;-74
2022/01/04 00:15:08;;;;;;;6.87;1.67;;;;;;;;;;5050575;28;20511;-74
2022/01/04 00:17:34;;;;;;;8.23;2.00;;;;;;;;;;5032646;28;20052;-73
2022/01/04 00:20:00;;;;;;;7.87;2.07;;;;;;;;;;5049042;28;20059;-74
2022/01/04 00:22:25;;;;;;;9.80;2.13;;;;;;;;;;5050103;28;20035;-74
2022/01/04 00:24:51;;;;;;;7.93;1.73;;;;;;;;;;5050048;28;20025;-75
2022/01/04 00:27:17;;;;;;;6.33;1.87;;;;;;;;;;5049747;28;20029;-73
2022/01/04 00:29:42;;;;;;;12.43;2.97;;;;;;;;;;5050713;28;20020;-72
2022/01/04 00:32:08;;;;;;;5.57;1.90;;;;;;;;;;5032086;28;20037;-73
2022/01/04 00:34:34;;;;;;;9.07;2.20;;;;;;;;;;5049131;28;20040;-71
2022/01/04 00:37:00;;;;;;;9.63;2.17;;;;;;;;;;5049875;28;20081;-73
2022/01/04 00:39:25;;;;;;;6.97;2.10;;;;;;;;;;5049234;28;20067;-75
2022/01/04 00:41:51;;;;;;;6.17;1.80;;;;;;;;;;5049511;28;20095;-73
2022/01/04 00:44:16;;;;;;;7.93;2.20;;;;;;;;;;5048628;28;20425;-73
2022/01/04 00:46:42;;;;;;;7.37;1.90;;;;;;;;;;5031782;28;20047;-72
2022/01/04 00:49:11;;;;;;;11.47;2.73;;;;;;;;;;5048870;28;20448;-72
2022/01/04 00:52:03;;;;;;;6.93;2.10;;;;;;;;;;5049555;28;20024;-74
2022/01/04 00:54:28;;;;;;;5.45;2.13;;;;;;;;;;5048051;28;20052;-71
2022/01/04 00:56:54;;;;;;;6.43;2.37;;;;;;;;;;5048131;28;20032;-72
2022/01/04 00:59:20;;;;;;;9.13;2.20;;;;;;;;;;5049182;28;20043;-72
2022/01/04 01:01:45;;;;;;;9.10;2.57;;;;;;;;;;5048261;28;20437;-73
2022/01/04 01:04:11;;;;;;;10.30;3.03;;;;;;;;;;5050002;28;20062;-74
2022/01/04 01:06:37;;;;;;;9.70;2.53;;;;;;;;;;5043066;28;20500;-73
2022/01/04 01:09:04;;;;;;;10.40;2.53;;;;;;;;;;5043617;28;20029;-74
2022/01/04 01:11:29;;;;;;;8.93;2.80;;;;;;;;;;5049416;28;20035;-73
2022/01/04 01:13:55;;;;;;;3.90;1.73;;;;;;;;;;5050013;28;20033;-74
2022/01/04 01:16:21;;;;;;;6.53;2.10;;;;;;;;;;5049317;28;20041;-72
2022/01/04 01:18:46;;;;;;;5.60;2.10;;;;;;;;;;5049284;28;20040;-73
2022/01/04 01:21:12;;;;;;;14.80;2.20;;;;;;;;;;5048509;28;20025;-73
2022/01/04 01:23:38;;;;;;;12.07;2.50;;;;;;;;;;5048260;28;20049;-71
2022/01/04 01:26:06;;;;;;;7.83;2.20;;;;;;;;;;5047635;28;20120;-74
2022/01/04 01:28:33;;;;;;;16.20;1.97;;;;;;;;;;5081530;28;20493;-73
2022/01/04 01:30:59;;;;;;;6.83;2.33;;;;;;;;;;5047916;28;20028;-74
2022/01/04 01:33:27;;;;;;;9.77;1.73;;;;;;;;;;5049018;28;20056;-74
2022/01/04 01:35:56;;;;;;;8.07;2.40;;;;;;;;;;5043688;28;20030;-72
2022/01/04 01:38:22;;;;;;;19.27;3.87;;;;;;;;;;5047777;28;20157;-73
2022/01/04 01:40:48;;;;;;;7.63;2.20;;;;;;;;;;5049093;28;20500;-72
2022/01/04 01:43:15;;;;;;;9.40;1.97;;;;;;;;;;5048833;28;20098;-72
2022/01/04 01:45:41;;;;;;;7.33;1.90;;;;;;;;;;5047826;28;20024;-72
2022/01/04 01:48:06;;;;;;;6.17;2.43;;;;;;;;;;5049003;28;20114;-73
2022/01/04 01:50:33;;;;;;;5.10;2.00;;;;;;;;;;5047464;28;20496;-73
2022/01/04 01:52:59;;;;;;;19.07;2.10;;;;;;;;;;5046716;28;20026;-73
2022/01/04 01:55:25;;;;;;;4.77;2.20;;;;;;;;;;5047514;28;20021;-72
2022/01/04 01:57:52;;;;;;;14.17;2.87;;;;;;;;;;5048455;28;20473;-73
2022/01/04 02:00:20;;;;;;;9.43;3.00;;;;;;;;;;5048875;28;20099;-73
2022/01/04 02:02:45;;;;;;;6.27;2.50;;;;;;;;;;5048378;28;20029;-73
2022/01/04 02:05:11;;;;;;;6.57;2.03;;;;;;;;;;5048420;28;20028;-73
2022/01/04 02:07:39;;;;;;;9.93;3.00;;;;;;;;;;5047388;28;20079;-73
2022/01/04 02:10:07;;;;;;;10.43;1.97;;;;;;;;;;5048398;28;20711;-74
2022/01/04 02:12:47;;;;;;;8.53;3.43;;;;;;;;;;5046684;28;20064;-76
2022/01/04 02:15:19;;;;;;;9.03;2.20;;;;;;;;;;5047292;28;20044;-73
2022/01/04 02:17:44;;;;;;;;;;;;;;;;;;5048999;28;20732;-73
2022/01/04 02:20:11;;;;;;;11.77;2.40;;;;;;;;;;5050251;28;19917;-74
2022/01/04 02:22:37;;;;;;;13.23;2.93;;;;;;;;;;5051413;28;20029;-73
2022/01/04 02:25:04;;;;;;;11.20;3.00;;;;;;;;;;5051543;28;20058;-74
2022/01/04 02:27:33;;;;;;;14.37;2.50;;;;;;;;;;5050600;28;20036;-72
2022/01/04 02:29:59;;;;;;;10.67;2.53;;;;;;;;;;5052448;28;20032;-74
2022/01/04 02:32:24;;;;;;;17.17;2.97;;;;;;;;;;5052322;28;20033;-72
2022/01/04 02:34:51;;;;;;;13.87;3.50;;;;;;;;;;5052427;28;20040;-73
2022/01/04 02:37:25;;;;;;;9.73;2.80;;;;;;;;;;5050945;28;20102;-72
2022/01/04 02:39:52;;;;;;;7.50;2.57;;;;;;;;;;5052655;28;20477;-73
2022/01/04 02:42:21;;;;;;;10.03;3.07;;;;;;;;;;5052158;28;20456;-74
2022/01/04 02:44:47;;;;;;;11.13;3.37;;;;;;;;;;5053667;28;20033;-73
2022/01/04 02:47:14;;;;;;;5.43;2.27;;;;;;;;;;5052792;28;20481;-72
2022/01/04 02:49:40;;;;;;;8.80;2.53;;;;;;;;;;5053992;28;20039;-73
2022/01/04 02:52:06;;;;;;;13.10;3.50;;;;;;;;;;5051952;28;20032;-71
2022/01/04 02:54:32;;;;;;;13.93;2.90;;;;;;;;;;5052469;28;20471;-74
2022/01/04 02:56:57;;;;;;;15.80;2.67;;;;;;;;;;5050445;28;20028;-72
2022/01/04 02:59:23;;;;;;;6.50;2.60;;;;;;;;;;5051285;28;20465;-71
2022/01/04 03:01:49;;;;;;;12.10;2.43;;;;;;;;;;5051721;28;20075;-74
2022/01/04 03:04:14;;;;;;;10.37;2.30;;;;;;;;;;5052181;28;20499;-72
2022/01/04 03:06:40;;;;;;;5.90;2.50;;;;;;;;;;5050552;28;20024;-73
2022/01/04 03:09:06;;;;;;;9.63;2.47;;;;;;;;;;5050785;28;20021;-72
2022/01/04 03:11:33;;;;;;;10.30;2.90;;;;;;;;;;5051474;28;20116;-74
2022/01/04 03:13:59;;;;;;;14.20;2.90;;;;;;;;;;5050126;28;20515;-72
2022/01/04 03:16:24;;;;;;;9.20;2.87;;;;;;;;;;5051723;28;20206;-73
2022/01/04 03:19:11;;;;;;;8.13;2.07;;;;;;;;;;5051562;28;20443;-73
2022/01/04 03:21:39;;;;;;;17.90;4.27;;;;;;;;;;5050879;28;20032;-72
2022/01/04 03:24:07;;;;;;;6.47;3.07;;;;;;;;;;5050091;28;20035;-71
2022/01/04 03:26:34;;;;;;;9.23;2.70;;;;;;;;;;5051851;28;20103;-71
2022/01/04 03:29:00;;;;;;;10.63;2.67;;;;;;;;;;5050211;28;20044;-74
2022/01/04 03:31:28;;;;;;;8.43;2.80;;;;;;;;;;5049825;28;20036;-73
2022/01/04 03:33:53;;;;;;;11.83;2.57;;;;;;;;;;5050035;28;20111;-73
2022/01/04 03:36:21;;;;;;;6.90;2.43;;;;;;;;;;5049374;28;21174;-74
2022/01/04 03:38:48;;;;;;;11.93;2.97;;;;;;;;;;5051382;28;20041;-72
2022/01/04 03:41:18;;;;;;;9.17;2.33;;;;;;;;;;5051503;28;20496;-73
2022/01/04 03:43:44;;;;;;;12.33;2.70;;;;;;;;;;5050996;28;20074;-72
2022/01/04 03:46:09;;;;;;;4.00;2.00;;;;;;;;;;5049678;28;20036;-73
2022/01/04 03:48:36;;;;;;;13.03;3.33;;;;;;;;;;5051416;28;20516;-72
2022/01/04 03:51:03;;;;;;;8.77;2.60;;;;;;;;;;5051128;28;20512;-73
2022/01/04 03:53:28;;;;;;;4.43;2.43;;;;;;;;;;5050900;28;20107;-72
2022/01/04 03:55:54;;;;;;;6.43;2.00;;;;;;;;;;5050969;28;20119;-72
2022/01/04 03:58:19;;;;;;;7.87;2.67;;;;;;;;;;5050046;28;20473;-71
2022/01/04 04:00:45;;;;;;;9.17;3.63;;;;;;;;;;5051612;28;20115;-73
2022/01/04 04:03:11;;;;;;;10.73;2.57;;;;;;;;;;5049380;28;20472;-72
2022/01/04 04:05:36;;;;;;;9.70;3.13;;;;;;;;;;5049663;28;20028;-73
2022/01/04 04:08:02;;;;;;;8.30;2.50;;;;;;;;;;5048971;28;20021;-73
2022/01/04 04:10:27;;;;;;;8.80;2.20;;;;;;;;;;5049307;28;20090;-73
2022/01/04 04:12:53;;;;;;;7.50;2.30;;;;;;;;;;5048609;28;20382;-73
2022/01/04 04:15:18;;;;;;;4.97;2.27;;;;;;;;;;5050794;28;20533;-74
2022/01/04 04:17:46;;;;;;;8.73;2.43;;;;;;;;;;5048838;28;20124;-72
2022/01/04 04:20:11;;;;;;;13.10;2.67;;;;;;;;;;5049067;28;20028;-73
2022/01/04 04:22:37;;;;;;;14.67;2.40;;;;;;;;;;5048832;28;20036;-72
2022/01/04 04:25:03;;;;;;;7.57;2.30;;;;;;;;;;5050473;28;20110;-74
2022/01/04 04:27:29;;;;;;;8.50;2.30;;;;;;;;;;5050125;28;20029;-72
2022/01/04 04:29:54;;;;;;;10.93;2.07;;;;;;;;;;5050761;28;20393;-72
2022/01/04 04:32:20;;;;;;;15.47;2.57;;;;;;;;;;5050669;28;20060;-72
2022/01/04 04:34:45;;;;;;;4.10;2.30;;;;;;;;;;5055945;28;20040;-73
2022/01/04 04:37:11;;;;;;;14.47;3.83;;;;;;;;;;5054130;28;20370;-73
2022/01/04 04:39:36;;;;;;;7.27;2.13;;;;;;;;;;5046456;28;20033;-73
2022/01/04 04:42:02;;;;;;;10.33;2.40;;;;;;;;;;5050281;28;20551;-72
2022/01/04 04:44:28;;;;;;;7.50;2.27;;;;;;;;;;5049678;28;20078;-73
2022/01/04 04:46:53;;;;;;;11.17;2.77;;;;;;;;;;5048388;28;20481;-72
2022/01/04 04:49:20;;;;;;;9.93;2.83;;;;;;;;;;5048222;28;20033;-72
2022/01/04 04:51:46;;;;;;;8.03;2.33;;;;;;;;;;5047793;28;20029;-73
2022/01/04 04:54:11;;;;;;;10.63;2.50;;;;;;;;;;5049875;28;20033;-73
2022/01/04 04:56:38;;;;;;;8.97;2.30;;;;;;;;;;5048087;28;20477;-72
2022/01/04 04:59:09;;;;;;;7.87;2.07;;;;;;;;;;5048449;28;20222;-72
2022/01/04 05:01:36;;;;;;;6.03;2.27;;;;;;;;;;5049257;28;20060;-73
2022/01/04 05:04:02;;;;;;;5.80;1.93;;;;;;;;;;5048152;28;20516;-72
2022/01/04 05:06:28;;;;;;;7.77;1.90;;;;;;;;;;5048328;28;20052;-72
2022/01/04 05:08:54;;;;;;;10.93;2.60;;;;;;;;;;5048317;28;20033;-74
2022/01/04 05:11:20;;;;;;;7.87;2.90;;;;;;;;;;5032098;28;20055;-72
2022/01/04 05:13:45;;;;;;;4.47;2.07;;;;;;;;;;5049769;28;20036;-71
2022/01/04 05:16:11;;;;;;;4.67;1.63;;;;;;;;;;5048560;28;20063;-73
2022/01/04 05:18:37;;;;;;;10.43;2.33;;;;;;;;;;5030932;28;20102;-73
2022/01/04 05:21:03;;;;;;;5.67;1.70;;;;;;;;;;5048924;28;20036;-74
2022/01/04 05:23:30;;;;;;;7.63;2.47;;;;;;;;;;5047761;28;20028;-73
2022/01/04 05:25:55;;;;;;;6.63;2.20;;;;;;;;;;5047771;28;20124;-73
2022/01/04 05:28:22;;;;;;;7.27;3.30;;;;;;;;;;5047040;28;20556;-73
2022/01/04 05:30:48;;;;;;;12.07;3.70;;;;;;;;;;5049285;28;20037;-73
2022/01/04 05:33:14;;;;;;;16.53;3.70;;;;;;;;;;5047064;28;20101;-73
2022/01/04 05:35:39;;;;;;;6.93;3.10;;;;;;;;;;5047636;28;20056;-74
2022/01/04 05:38:05;;;;;;;12.50;3.10;;;;;;;;;;5047454;28;20077;-72
2022/01/04 05:40:30;;;;;;;16.13;4.57;;;;;;;;;;5048858;28;20140;-73
2022/01/04 05:42:56;;;;;;;5.87;2.87;;;;;;;;;;5046784;28;20557;-73
2022/01/04 05:45:22;;;;;;;5.60;2.67;;;;;;;;;;5049356;28;20496;-72
2022/01/04 05:47:47;;;;;;;7.00;2.87;;;;;;;;;;5047642;28;20039;-72
2022/01/04 05:50:13;;;;;;;8.90;2.73;;;;;;;;;;5048470;28;20029;-73
2022/01/04 05:52:39;;;;;;;6.33;2.90;;;;;;;;;;5048182;28;20041;-73
2022/01/04 05:55:05;;;;;;;4.67;3.03;;;;;;;;;;5046497;28;20107;-73
2022/01/04 05:57:30;;;;;;;7.03;2.33;;;;;;;;;;5047124;28;20028;-74
2022/01/04 05:59:57;;;;;;;10.37;3.27;;;;;;;;;;5048671;28;20075;-75
2022/01/04 06:02:23;;;;;;;5.83;2.53;;;;;;;;;;5046846;28;20041;-73
2022/01/04 06:04:49;;;;;;;6.23;2.40;;;;;;;;;;5048876;28;20056;-72
2022/01/04 06:07:14;;;;;;;5.13;2.23;;;;;;;;;;5048296;28;20497;-72
2022/01/04 06:09:46;;;;;;;7.83;3.13;;;;;;;;;;5030974;28;20536;-74
2022/01/04 06:15:01;;;;;;;6.63;1.87;;;;;;;;;;5048538;28;20087;-73
2022/01/04 06:17:39;;;;;;;9.93;2.90;;;;;;;;;;5042405;28;20120;-72
2022/01/04 06:20:07;;;;;;;6.97;2.33;;;;;;;;;;5069730;28;20098;-72
2022/01/04 06:22:33;;;;;;;9.57;2.50;;;;;;;;;;5051895;28;20135;-74
2022/01/04 06:24:59;;;;;;;5.07;2.40;;;;;;;;;;5043671;28;20037;-74
2022/01/04 06:27:25;;;;;;;5.67;2.60;;;;;;;;;;5047030;28;20025;-73
2022/01/04 06:29:51;;;;;;;5.97;2.10;;;;;;;;;;5046531;28;20123;-74
2022/01/04 06:32:17;;;;;;;7.73;2.70;;;;;;;;;;5045197;28;20035;-72
2022/01/04 06:34:44;;;;;;;7.37;2.10;;;;;;;;;;5045358;28;20028;-72
2022/01/04 06:37:11;;;;;;;3.00;1.93;;;;;;;;;;5045027;28;20131;-72
2022/01/04 06:39:37;;;;;;;5.30;1.57;;;;;;;;;;5046523;28;20075;-71
2022/01/04 06:42:03;;;;;;;2.70;2.10;;;;;;;;;;5060640;28;20029;-74
2022/01/04 06:44:29;;;;;;;2.13;1.67;;;;;;;;;;5047509;28;20529;-75
2022/01/04 06:46:56;;;;;;;6.17;2.03;;;;;;;;;;5048546;28;20036;-77
2022/01/04 06:49:22;;;;;;;9.53;3.20;;;;;;;;;;5028267;28;20116;-75
2022/01/04 06:51:50;;;;;;;4.07;2.33;;;;;;;;;;5040523;28;20120;-75
2022/01/04 06:54:17;;;;;;;6.33;2.63;;;;;;;;;;5062303;28;20036;-75
2022/01/04 06:56:44;;;;;;;7.57;2.77;;;;;;;;;;5046572;28;20480;-74
2022/01/04 06:59:10;;;;;;;3.97;2.00;;;;;;;;;;5047195;28;20493;-74
2022/01/04 07:01:37;;;;;;;7.50;2.50;;;;;;;;;;5043358;28;20033;-75
2022/01/04 07:04:03;;;;;;;6.83;2.47;;;;;;;;;;5039685;28;20056;-73
2022/01/04 07:06:32;;;;;;;4.43;1.90;;;;;;;;;;5046873;28;20098;-74
2022/01/04 07:08:57;;;;;;;4.47;1.70;;;;;;;;;;5050671;28;20049;-74
2022/01/04 07:11:23;;;;;;;8.03;2.77;;;;;;;;;;5048911;28;20404;-73
2022/01/04 07:13:49;;;;;;;3.63;1.80;;;;;;;;;;5044580;28;20058;-74
2022/01/04 07:16:15;;;;;;;4.73;2.73;;;;;;;;;;5045443;28;20690;-73
2022/01/04 07:18:41;;;;;;;8.30;2.50;;;;;;;;;;5048842;28;20029;-75
2022/01/04 07:21:07;;;;;;;4.70;2.57;;;;;;;;;;5042312;28;20459;-74
2022/01/04 07:23:33;;;;;;;6.57;2.10;;;;;;;;;;5042147;28;20158;-75
2022/01/04 07:25:59;;;;;;;6.53;2.70;;;;;;;;;;5061848;28;20033;-73
2022/01/04 07:28:26;;;;;;;5.53;2.73;;;;;;;;;;5051988;28;20508;-75
2022/01/04 07:30:52;;;;;;;9.80;3.30;;;;;;;;;;5049117;28;20073;-72
2022/01/04 07:33:17;;;;;;;7.47;2.47;;;;;;;;;;5033958;28;20041;-73
2022/01/04 07:35:44;;;;;;;4.00;2.50;;;;;;;;;;5049949;28;20028;-75
2022/01/04 07:38:10;;;;;;;4.27;2.80;;;;;;;;;;5053385;28;20045;-74
2022/01/04 07:40:36;;;;;;;3.63;2.60;;;;;;;;;;5042870;28;20040;-74
2022/01/04 07:43:01;;;;;;;4.47;2.57;;;;;;;;;;5046891;28;20032;-74
2022/01/04 07:45:28;;;;;;;7.83;2.63;;;;;;;;;;5046950;28;20021;-75
2022/01/04 07:47:55;;;;;;;5.17;2.70;;;;;;;;;;5046971;28;20029;-75
2022/01/04 07:50:20;;;;;;;7.37;2.97;;;;;;;;;;5047546;28;20132;-74
2022/01/04 07:52:46;;;;;;;3.77;2.37;;;;;;;;;;5049872;28;20028;-74
2022/01/04 07:55:12;;;;;;;7.07;3.57;;;;;;;;;;5048656;28;20041;-75
2022/01/04 07:57:39;;;;;;;3.77;2.03;;;;;;;;;;5047308;28;20036;-76
2022/01/04 08:00:06;;;;;;;6.57;3.37;;;;;;;;;;5045871;28;20036;-74
2022/01/04 08:02:32;;;;;;;7.87;3.33;;;;;;;;;;5036131;28;20048;-75
2022/01/04 08:04:57;;;;;;;5.70;3.33;;;;;;;;;;5037822;28;20525;-76
2022/01/04 08:07:23;;;;;;;6.40;2.20;;;;;;;;;;5041780;28;20417;-75
2022/01/04 08:09:48;;;;;;;7.83;2.80;;;;;;;;;;5043782;28;20033;-75
2022/01/04 08:12:14;;;;;;;7.57;3.97;;;;;;;;;;5040757;28;20592;-74
2022/01/04 08:14:40;;;;;;;4.93;3.00;;;;;;;;;;5056829;28;20028;-76
2022/01/04 08:17:06;;;;;;;5.67;2.50;;;;;;;;;;5041670;28;20025;-75
2022/01/04 08:19:31;;;;;;;5.60;3.07;;;;;;;;;;5048494;28;20079;-74
2022/01/04 08:21:57;;;;;;;4.63;2.60;;;;;;;;;;5040366;28;20036;-76
2022/01/04 08:24:23;;;;;;;6.13;2.27;;;;;;;;;;5041431;28;20028;-74
2022/01/04 08:26:48;;;;;;;7.27;2.57;;;;;;;;;;5037415;28;20032;-75
2022/01/04 08:29:14;;;;;;;8.73;2.40;;;;;;;;;;5039836;28;20686;-76
2022/01/04 08:31:41;;;;;;;5.07;3.20;;;;;;;;;;5040373;28;20502;-76
2022/01/04 08:34:06;;;;;;;4.83;2.53;;;;;;;;;;5041755;28;20036;-76
2022/01/04 08:36:32;;;;;;;6.13;2.30;;;;;;;;;;5041964;28;20798;-76
2022/01/04 08:38:59;;;;;;;8.90;2.43;;;;;;;;;;5042427;28;20031;-73
2022/01/04 08:41:25;;;;;;;8.33;3.60;;;;;;;;;;5039100;28;20033;-75
2022/01/04 08:43:50;;;;;;;4.47;2.40;;;;;;;;;;5040714;28;20102;-74
2022/01/04 08:46:17;;;;;;;4.70;2.53;;;;;;;;;;5039142;28;20711;-75
2022/01/04 08:48:43;;;;;;;6.77;3.73;;;;;;;;;;5040066;28;20501;-76
2022/01/04 08:51:08;;;;;;;5.10;2.40;;;;;;;;;;5035111;28;20106;-74
2022/01/04 08:53:34;;;;;;;6.73;2.80;;;;;;;;;;5041040;28;20372;-76
2022/01/04 08:56:01;;;;;;;4.87;2.47;;;;;;;;;;5039416;28;20033;-75
2022/01/04 08:58:28;;;;;;;6.17;2.57;;;;;;;;;;5043633;28;20036;-75
2022/01/04 09:00:55;;;;;;;3.37;2.47;;;;;;;;;;5041762;28;20545;-74
2022/01/04 09:03:21;;;;;;;4.87;2.47;;;;;;;;;;5044657;28;20029;-75
2022/01/04 09:05:47;;;;;;;5.33;2.90;;;;;;;;;;5041805;28;20048;-74
2022/01/04 09:08:13;;;;;;;3.43;2.10;;;;;;;;;;5040307;28;20037;-77
2022/01/04 09:10:38;;;;;;;4.50;2.73;;;;;;;;;;5045479;28;20043;-76
2022/01/04 09:13:10;;;;;;;6.33;3.57;;;;;;;;;;5046813;28;20182;-76
2022/01/04 09:20:53;;;;;;;3.37;2.20;;;;;;;;;;5038621;28;20460;-76
2022/01/04 09:23:20;;;;;;;5.30;2.57;;;;;;;;;;5038738;28;20033;-75
2022/01/04 09:25:51;;;;;;;5.27;2.10;;;;;;;;;;5020782;28;20048;-75
2022/01/04 09:28:19;;;;;;;5.67;2.30;;;;;;;;;;5072790;28;20025;-77
2022/01/04 09:30:48;;;;;;;4.80;2.43;;;;;;;;;;5037400;28;20472;-75
2022/01/04 09:33:14;;;;;;;6.20;2.03;;;;;;;;;;5035048;28;20059;-75
2022/01/04 09:35:41;;;;;;;3.77;2.40;;;;;;;;;;5037149;28;20028;-74
2022/01/04 09:38:07;;;;;;;3.67;2.43;;;;;;;;;;5020643;28;20053;-75
2022/01/04 09:40:35;;;;;;;7.93;2.70;;;;;;;;;;5035970;28;20041;-76
2022/01/04 09:43:06;;;;;;;5.00;2.17;;;;;;;;;;5035440;28;20063;-74
2022/01/04 09:45:32;;;;;;;5.27;2.37;;;;;;;;;;5037959;28;20110;-75
2022/01/04 09:47:58;;;;;;;3.13;2.30;;;;;;;;;;5038174;28;20028;-75
2022/01/04 09:50:24;;;;;;;2.57;2.20;;;;;;;;;;5035747;28;20033;-74
2022/01/04 09:52:50;;;;;;;4.60;2.00;;;;;;;;;;5034050;28;20041;-75
2022/01/04 09:55:17;;;;;;;2.97;1.77;;;;;;;;;;5035479;28;20025;-73
2022/01/04 09:57:46;;;;;;;3.77;2.20;;;;;;;;;;5039698;28;20025;-75
2022/01/04 10:00:16;;;;;;;5.30;1.70;;;;;;;;;;5036872;28;20037;-75
2022/01/04 10:02:49;;;;;;;5.00;1.93;;;;;;;;;;5036294;28;20090;-74
2022/01/04 10:05:29;;;;;;;3.17;1.93;;;;;;;;;;5069333;28;20140;-74
2022/01/04 10:08:05;;;;;;;5.93;2.10;;;;;;;;;;5038366;28;20107;-75
2022/01/04 10:10:32;;;;;;;3.03;2.07;;;;;;;;;;5068781;28;20040;-75
2022/01/04 10:13:09;;;;;;;3.10;2.20;;;;;;;;;;5038112;28;20485;-74
2022/01/04 10:15:50;;;;;;;2.67;1.70;;;;;;;;;;5037664;28;20029;-74
2022/01/04 10:18:21;;;;;;;3.47;2.27;;;;;;;;;;5033822;28;20058;-74
2022/01/04 10:20:58;;;;;;;3.40;2.17;;;;;;;;;;5066866;28;20032;-74
2022/01/04 10:23:25;;;;;;;6.67;5.27;;;;;;;;;;5038212;28;20110;-75
2022/01/04 10:25:53;;;;;;;4.67;4.20;;;;;;;;;;5037594;28;20069;-75
2022/01/04 10:28:42;;;;;;;3.37;1.80;;;;;;;;;;5033385;28;20025;-75
2022/01/04 10:31:16;;;;;;;5.23;1.73;;;;;;;;;;5034167;28;20036;-73
2022/01/04 10:33:43;;;;;;;3.33;2.20;;;;;;;;;;5036643;28;20033;-76
2022/01/04 10:36:12;;;;;;;4.33;1.80;;;;;;;;;;5020853;28;20060;-75
2022/01/04 10:38:43;;;;;;;5.03;1.87;;;;;;;;;;5029276;28;20036;-75
2022/01/04 10:41:26;;;;;;;4.15;2.15;;;;;;;;;;5041850;28;20031;-75
2022/01/04 10:44:10;;;;;;;2.50;1.53;;;;;;;;;;5042292;28;20060;-75
2022/01/04 10:46:44;;;;;;;5.73;1.90;;;;;;;;;;5039261;28;20040;-75
2022/01/04 10:49:21;;;;;;;5.67;2.20;;;;;;;;;;5042881;28;20028;-77
2022/01/04 10:52:08;;;;;;;4.53;1.83;;;;;;;;;;5040608;28;20068;-75
2022/01/04 10:54:35;;;;;;;7.20;1.90;;;;;;;;;;5039349;28;20044;-75
2022/01/04 10:57:06;;;;;;;2.33;1.80;;;;;;;;;;5024395;28;20028;-76
2022/01/04 10:59:32;;;;;;;5.00;2.83;;;;;;;;;;5042411;28;20550;-75
2022/01/04 11:01:58;;;;;;;3.30;1.70;;;;;;;;;;5036378;28;20144;-76
2022/01/04 11:04:24;;;;;;;6.50;1.90;;;;;;;;;;5036831;28;20032;-75
2022/01/04 11:06:58;;;;;;;3.33;1.97;;;;;;;;;;5038309;28;20040;-75
2022/01/04 11:09:24;;;;;;;2.33;1.40;;;;;;;;;;5049707;28;20465;-74
2022/01/04 11:11:51;;;;;;;6.70;2.20;;;;;;;;;;5076777;28;20032;-76
2022/01/04 11:14:17;;;;;;;4.20;1.87;;;;;;;;;;5036264;28;20044;-75
2022/01/04 11:16:43;;;;;;;5.50;2.27;;;;;;;;;;5059854;28;20174;-74
2022/01/04 11:19:12;;;;;;;5.23;1.90;;;;;;;;;;5057070;28;20021;-75
2022/01/04 11:21:43;;;;;;;3.90;1.80;;;;;;;;;;5053891;28;20025;-75
2022/01/04 11:24:19;;;;;;;2.28;1.75;;;;;;;;;;5050188;28;20029;-76
2022/01/04 11:26:48;;;;;;;1.77;0.90;;;;;;;;;;5051513;28;20028;-76
2022/01/04 11:29:27;;;;;;;4.03;1.83;;;;;;;;;;5048252;28;20017;-75
2022/01/04 11:32:05;;;;;;;3.05;1.60;;;;;;;;;;5071823;28;20033;-75
2022/01/04 11:34:49;;;;;;;2.45;1.55;;;;;;;;;;5034409;28;20036;-75
2022/01/04 11:37:20;;;;;;;3.92;1.83;;;;;;;;;;5036517;28;20124;-75
2022/01/04 11:39:46;;;;;;;2.53;1.38;;;;;;;;;;5032615;28;20037;-75
2022/01/04 11:42:34;;;;;;;2.28;1.10;;;;;;;;;;5066542;28;20120;-75
2022/01/04 11:45:01;;;;;;;2.92;1.25;;;;;;;;;;5039999;28;20039;-75
2022/01/04 11:47:29;;;;;;;3.90;2.40;;;;;;;;;;5037645;28;20112;-75
2022/01/04 11:50:21;;;;;;;2.40;1.20;;;;;;;;;;5038066;28;20060;-75
2022/01/04 11:52:56;;;;;;;4.63;1.60;;;;;;;;;;5019698;28;20128;-76
2022/01/04 11:55:29;;;;;;;2.87;1.43;;;;;;;;;;5018559;28;20157;-75
2022/01/04 11:58:14;;;;;;;2.60;1.20;;;;;;;;;;5035451;28;20088;-74
2022/01/04 12:00:44;;;;;;;1.40;1.30;;;;;;;;;;5036737;28;20055;-75
2022/01/04 12:03:18;;;;;;;6.03;1.70;;;;;;;;;;5041672;28;20040;-73
2022/01/04 12:05:56;;;;;;;3.60;1.50;;;;;;;;;;5034248;28;20033;-74
2022/01/04 12:08:28;;;;;;;1.60;1.50;;;;;;;;;;5038398;28;20113;-75
2022/01/04 12:10:57;;;;;;;2.45;1.50;;;;;;;;;;5033610;28;20452;-74
2022/01/04 12:13:25;;;;;;;4.00;1.33;;;;;;;;;;5036929;28;20037;-75
2022/01/04 12:15:57;;;;;;;1.83;1.40;;;;;;;;;;5034144;28;20214;-74
2022/01/04 12:18:23;;;;;;;3.70;1.67;;;;;;;;;;5038350;28;20055;-73
2022/01/04 12:20:59;;;;;;;1.57;1.47;;;;;;;;;;5036319;28;20491;-76
2022/01/04 12:23:35;;;;;;;3.35;1.75;;;;;;;;;;5038490;28;20036;-75
2022/01/04 12:26:08;;;;;;;3.67;1.70;;;;;;;;;;5042557;28;20040;-74
2022/01/04 12:29:09;;;;;;;2.60;2.10;;;;;;;;;;5036481;28;20033;-74
2022/01/04 12:31:44;;;;;;;2.25;1.48;;;;;;;;;;5036907;28;20375;-75
2022/01/04 12:34:32;;;;;;;4.87;2.03;;;;;;;;;;5037406;28;20029;-75
2022/01/04 12:36:59;;;;;;;1.97;1.30;;;;;;;;;;5039485;28;20477;-75
2022/01/04 12:39:51;;;;;;;6.37;1.87;;;;;;;;;;5038820;28;20051;-75
2022/01/04 12:42:19;;;;;;;5.43;1.83;;;;;;;;;;5033343;28;20087;-75
2022/01/04 12:44:50;;;;;;;2.75;1.92;;;;;;;;;;5038286;28;20385;-75
2022/01/04 12:47:17;;;;;;;;;;;;;;;;;;5035571;28;20025;-74
2022/01/04 12:49:47;;;;;;;4.45;1.45;;;;;;;;;;5069798;28;19920;-75
2022/01/04 12:52:17;;;;;;;3.83;1.95;;;;;;;;;;5035601;28;20091;-75
2022/01/04 12:54:44;;;;;;;3.53;1.75;;;;;;;;;;5006869;28;20025;-76
2022/01/04 12:57:21;;;;;;;3.70;1.50;;;;;;;;;;5034614;28;20032;-75
2022/01/04 12:59:54;;;;;;;3.20;1.48;;;;;;;;;;5035528;28;20040;-76
2022/01/04 13:02:21;;;;;;;7.10;3.45;;;;;;;;;;5038689;28;20029;-76
2022/01/04 13:04:52;;;;;;;3.67;2.20;;;;;;;;;;5037275;28;20140;-75
2022/01/04 13:07:30;;;;;;;7.25;2.50;;;;;;;;;;5038047;28;20072;-76
2022/01/04 13:10:04;;;;;;;3.65;1.60;;;;;;;;;;5039112;28;20056;-75
2022/01/04 13:12:42;;;;;;;5.40;1.83;;;;;;;;;;5034500;28;20116;-74
2022/01/04 13:15:14;;;;;;;4.50;1.65;;;;;;;;;;5033354;28;20025;-75
2022/01/04 13:17:45;;;;;;;4.93;2.00;;;;;;;;;;5036690;28;20032;-76
2022/01/04 13:20:14;;;;;;;3.85;1.83;;;;;;;;;;5034846;28;20440;-77
2022/01/04 13:22:40;;;;;;;2.05;1.73;;;;;;;;;;5028943;28;20781;-75
2022/01/04 13:25:08;;;;;;;3.83;1.73;;;;;;;;;;5033030;28;20484;-74
2022/01/04 13:27:42;;;;;;;4.70;1.70;;;;;;;;;;5039573;28;20115;-73
2022/01/04 13:30:14;;;;;;;4.22;1.98;;;;;;;;;;5033825;28;20035;-76
2022/01/04 13:32:44;;;;;;;4.80;1.80;;;;;;;;;;5036970;28;20028;-74
2022/01/04 13:35:16;;;;;;;2.10;1.70;;;;;;;;;;5037923;28;20031;-74
2022/01/04 13:38:06;;;;;;;4.88;1.95;;;;;;;;;;5039174;28;20260;-76
2022/01/04 13:40:34;;;;;;;2.80;1.88;;;;;;;;;;5034131;28;20485;-75
2022/01/04 13:43:04;;;;;;;4.60;2.40;;;;;;;;;;5035343;28;20054;-77
2022/01/04 13:45:53;;;;;;;6.43;2.10;;;;;;;;;;5034324;28;20067;-75
2022/01/04 13:48:24;;;;;;;2.80;2.05;;;;;;;;;;5055543;28;20033;-77
2022/01/04 13:50:50;;;;;;;3.43;2.20;;;;;;;;;;5067598;28;20095;-77
2022/01/04 13:53:17;;;;;;;4.60;1.75;;;;;;;;;;5036833;28;20281;-77
2022/01/04 13:55:57;;;;;;;3.97;1.80;;;;;;;;;;5035007;28;20386;-76
2022/01/04 13:58:37;;;;;;;3.55;1.98;;;;;;;;;;5036429;28;20017;-75
2022/01/04 14:01:31;;;;;;;2.95;2.00;;;;;;;;;;5036508;28;20031;-76
2022/01/04 14:04:10;;;;;;;5.22;2.72;;;;;;;;;;5034893;28;20032;-77
2022/01/04 14:06:50;;;;;;;3.33;2.05;;;;;;;;;;5050852;28;20116;-75
2022/01/04 14:09:21;;;;;;;3.78;2.17;;;;;;;;;;5039287;28;20061;-74
2022/01/04 14:11:50;;;;;;;3.25;2.30;;;;;;;;;;5036053;28;20044;-75
2022/01/04 14:14:19;;;;;;;6.47;2.50;;;;;;;;;;5063839;28;20037;-74
2022/01/04 14:16:48;;;;;;;4.35;2.33;;;;;;;;;;5032378;28;20870;-76
2022/01/04 14:19:20;;;;;;;3.67;2.28;;;;;;;;;;5033558;28;20051;-76
2022/01/04 14:21:54;;;;;;;;;;;;;;;;;;5037745;28;20231;-76
2022/01/04 14:24:43;;;;;;;3.38;2.53;;;;;;;;;;5036582;28;19927;-78
2022/01/04 14:27:25;;;;;;;4.00;2.85;;;;;;;;;;5033553;28;20906;-76
2022/01/04 14:29:58;;;;;;;3.92;1.95;;;;;;;;;;5037036;28;20194;-74
2022/01/04 14:32:39;;;;;;;5.38;2.20;;;;;;;;;;5035180;28;20642;-77
2022/01/04 14:35:19;;;;;;;2.90;2.20;;;;;;;;;;5034603;28;20045;-75
2022/01/04 14:37:46;;;;;;;5.00;2.67;;;;;;;;;;5031158;28;20036;-76
2022/01/04 14:40:16;;;;;;;5.25;2.63;;;;;;;;;;5068595;28;20031;-75
2022/01/04 14:42:42;;;;;;;8.02;2.95;;;;;;;;;;5037841;28;20017;-76
2022/01/04 14:45:11;;;;;;;3.63;2.25;;;;;;;;;;5041461;28;20028;-76
2022/01/04 14:47:37;;;;;;;6.60;2.80;;;;;;;;;;5037867;28;20021;-76
2022/01/04 14:50:05;;;;;;;6.03;2.83;;;;;;;;;;5038421;28;20029;-76
2022/01/04 14:52:30;;;;;;;7.03;2.90;;;;;;;;;;5039777;28;20028;-76
2022/01/04 14:54:57;;;;;;;6.03;2.58;;;;;;;;;;5040426;28;20401;-75
2022/01/04 14:57:27;;;;;;;5.45;3.08;;;;;;;;;;5040165;28;20039;-76
2022/01/04 14:59:54;;;;;;;6.97;2.95;;;;;;;;;;5045921;28;20033;-75
2022/01/04 15:02:24;;;;;;;5.70;2.90;;;;;;;;;;5037603;28;20028;-76